sensor_id;sensor_type;location;lat;lon;timestamp;temperature;humidity
20777;DHT22;10548;47.504;8.248;2023-01-15T00:02:12;10.00;79.10
20777;DHT22;10548;47.504;8.248;2023-01-15T00:04:42;9.90;81.10
20777;DHT22;10548;47.504;8.248;2023-01-15T00:07:09;10.20;79.00
20777;DHT22;10548;47.504;8.248;2023-01-15T00:09:37;10.10;81.50
20777;DHT22;10548;47.504;8.248;2023-01-15T00:12:04;10.30;80.20
20777;DHT22;10548;47.504;8.248;2023-01-15T00:14:31;10.10;84.10
20777;DHT22;10548;47.504;8.248;2023-01-15T00:16:58;10.40;81.40
20777;DHT22;10548;47.504;8.248;2023-01-15T00:19:25;10.70;79.70
20777;DHT22;10548;47.504;8.248;2023-01-15T00:21:52;10.80;79.70
20777;DHT22;10548;47.504;8.248;2023-01-15T00:24:20;10.80;79.10
20777;DHT22;10548;47.504;8.248;2023-01-15T00:27:09;11.00;77.80
20777;DHT22;10548;47.504;8.248;2023-01-15T00:29:54;11.00;78.80
20777;DHT22;10548;47.504;8.248;2023-01-15T00:32:21;11.10;77.30
20777;DHT22;10548;47.504;8.248;2023-01-15T00:34:49;11.10;78.40
20777;DHT22;10548;47.504;8.248;2023-01-15T00:37:16;11.30;75.30
20777;DHT22;10548;47.504;8.248;2023-01-15T00:39:43;11.40;74.80
20777;DHT22;10548;47.504;8.248;2023-01-15T00:42:11;11.40;76.20
20777;DHT22;10548;47.504;8.248;2023-01-15T00:44:38;11.40;76.20
20777;DHT22;10548;47.504;8.248;2023-01-15T00:47:06;11.50;74.40
20777;DHT22;10548;47.504;8.248;2023-01-15T00:49:35;11.60;75.30
20777;DHT22;10548;47.504;8.248;2023-01-15T00:52:02;11.40;77.80
20777;DHT22;10548;47.504;8.248;2023-01-15T00:54:29;11.50;76.60
20777;DHT22;10548;47.504;8.248;2023-01-15T00:56:57;11.70;76.00
20777;DHT22;10548;47.504;8.248;2023-01-15T00:59:24;11.70;75.10
20777;DHT22;10548;47.504;8.248;2023-01-15T01:01:52;11.70;76.80
20777;DHT22;10548;47.504;8.248;2023-01-15T01:04:19;11.70;76.90
20777;DHT22;10548;47.504;8.248;2023-01-15T01:06:46;11.70;78.00
20777;DHT22;10548;47.504;8.248;2023-01-15T01:09:14;11.90;76.50
20777;DHT22;10548;47.504;8.248;2023-01-15T01:11:42;11.70;79.20
20777;DHT22;10548;47.504;8.248;2023-01-15T01:14:12;11.70;79.50
20777;DHT22;10548;47.504;8.248;2023-01-15T01:16:40;11.50;81.60
20777;DHT22;10548;47.504;8.248;2023-01-15T01:19:20;11.70;80.60
20777;DHT22;10548;47.504;8.248;2023-01-15T01:21:48;11.60;81.90
20777;DHT22;10548;47.504;8.248;2023-01-15T01:24:19;11.40;84.80
20777;DHT22;10548;47.504;8.248;2023-01-15T01:26:46;11.40;84.80
20777;DHT22;10548;47.504;8.248;2023-01-15T01:29:15;11.20;87.20
20777;DHT22;10548;47.504;8.248;2023-01-15T01:31:43;11.20;88.20
20777;DHT22;10548;47.504;8.248;2023-01-15T01:34:11;11.00;90.00
20777;DHT22;10548;47.504;8.248;2023-01-15T01:36:40;11.00;90.20
20777;DHT22;10548;47.504;8.248;2023-01-15T01:39:14;11.10;90.30
20777;DHT22;10548;47.504;8.248;2023-01-15T01:41:42;11.00;90.60
20777;DHT22;10548;47.504;8.248;2023-01-15T01:47:26;11.00;90.60
20777;DHT22;10548;47.504;8.248;2023-01-15T01:50:06;10.80;91.70
20777;DHT22;10548;47.504;8.248;2023-01-15T01:52:50;10.90;91.90
20777;DHT22;10548;47.504;8.248;2023-01-15T01:55:21;10.90;91.10
20777;DHT22;10548;47.504;8.248;2023-01-15T01:57:50;10.80;92.10
20777;DHT22;10548;47.504;8.248;2023-01-15T02:00:19;10.70;92.20
20777;DHT22;10548;47.504;8.248;2023-01-15T02:02:48;10.90;91.50
20777;DHT22;10548;47.504;8.248;2023-01-15T02:05:24;10.80;92.00
20777;DHT22;10548;47.504;8.248;2023-01-15T02:07:54;10.90;91.90
20777;DHT22;10548;47.504;8.248;2023-01-15T02:10:21;10.80;92.00
20777;DHT22;10548;47.504;8.248;2023-01-15T02:13:10;10.80;92.10
20777;DHT22;10548;47.504;8.248;2023-01-15T02:15:45;10.80;92.60
20777;DHT22;10548;47.504;8.248;2023-01-15T02:18:45;10.60;93.70
20777;DHT22;10548;47.504;8.248;2023-01-15T02:21:44;10.70;93.40
20777;DHT22;10548;47.504;8.248;2023-01-15T02:24:27;10.60;94.20
20777;DHT22;10548;47.504;8.248;2023-01-15T02:27:15;10.50;94.90
20777;DHT22;10548;47.504;8.248;2023-01-15T02:32:58;10.30;95.90
20777;DHT22;10548;47.504;8.248;2023-01-15T02:35:55;10.40;96.60
20777;DHT22;10548;47.504;8.248;2023-01-15T02:38:44;10.30;96.80
20777;DHT22;10548;47.504;8.248;2023-01-15T02:41:14;10.30;97.60
20777;DHT22;10548;47.504;8.248;2023-01-15T02:43:50;10.20;98.20
20777;DHT22;10548;47.504;8.248;2023-01-15T02:46:23;10.20;98.80
20777;DHT22;10548;47.504;8.248;2023-01-15T02:48:53;10.20;98.90
20777;DHT22;10548;47.504;8.248;2023-01-15T02:51:25;10.10;99.90
20777;DHT22;10548;47.504;8.248;2023-01-15T02:53:56;10.10;99.90
20777;DHT22;10548;47.504;8.248;2023-01-15T02:56:30;10.10;99.90
20777;DHT22;10548;47.504;8.248;2023-01-15T02:59:04;10.20;99.90
20777;DHT22;10548;47.504;8.248;2023-01-15T03:01:40;10.10;99.90
20777;DHT22;10548;47.504;8.248;2023-01-15T03:08:03;10.20;99.90
20777;DHT22;10548;47.504;8.248;2023-01-15T03:11:14;10.10;99.90
20777;DHT22;10548;47.504;8.248;2023-01-15T03:14:02;10.10;99.90
20777;DHT22;10548;47.504;8.248;2023-01-15T03:16:42;10.20;99.90
20777;DHT22;10548;47.504;8.248;2023-01-15T03:20:06;10.20;99.90
20777;DHT22;10548;47.504;8.248;2023-01-15T03:22:29;10.20;99.90
20777;DHT22;10548;47.504;8.248;2023-01-15T03:25:12;10.30;99.90
20777;DHT22;10548;47.504;8.248;2023-01-15T03:27:46;10.30;99.90
20777;DHT22;10548;47.504;8.248;2023-01-15T03:30:20;10.30;99.90
20777;DHT22;10548;47.504;8.248;2023-01-15T03:32:49;10.30;99.90
20777;DHT22;10548;47.504;8.248;2023-01-15T03:35:45;10.40;99.90
20777;DHT22;10548;47.504;8.248;2023-01-15T03:38:35;10.70;99.90
20777;DHT22;10548;47.504;8.248;2023-01-15T03:41:24;10.60;99.90
20777;DHT22;10548;47.504;8.248;2023-01-15T03:53:40;10.40;99.90
20777;DHT22;10548;47.504;8.248;2023-01-15T03:56:31;10.50;99.90
20777;DHT22;10548;47.504;8.248;2023-01-15T03:59:22;10.60;99.90
20777;DHT22;10548;47.504;8.248;2023-01-15T04:02:00;10.40;99.90
20777;DHT22;10548;47.504;8.248;2023-01-15T04:04:29;10.40;99.90
20777;DHT22;10548;47.504;8.248;2023-01-15T04:06:59;10.50;99.90
20777;DHT22;10548;47.504;8.248;2023-01-15T04:09:27;10.30;99.90
20777;DHT22;10548;47.504;8.248;2023-01-15T04:12:00;10.20;99.90
20777;DHT22;10548;47.504;8.248;2023-01-15T04:14:31;10.00;99.90
20777;DHT22;10548;47.504;8.248;2023-01-15T04:17:04;10.10;99.90
20777;DHT22;10548;47.504;8.248;2023-01-15T04:19:32;10.10;99.90
20777;DHT22;10548;47.504;8.248;2023-01-15T04:22:03;10.20;99.90
20777;DHT22;10548;47.504;8.248;2023-01-15T04:24:30;10.20;99.90
20777;DHT22;10548;47.504;8.248;2023-01-15T04:26:57;10.10;99.90
20777;DHT22;10548;47.504;8.248;2023-01-15T04:29:24;10.00;99.90
20777;DHT22;10548;47.504;8.248;2023-01-15T04:31:52;10.00;99.90
20777;DHT22;10548;47.504;8.248;2023-01-15T04:34:27;9.90;99.90
20777;DHT22;10548;47.504;8.248;2023-01-15T04:36:54;10.00;99.90
20777;DHT22;10548;47.504;8.248;2023-01-15T04:39:22;10.00;99.90
20777;DHT22;10548;47.504;8.248;2023-01-15T04:41:49;9.90;99.90
20777;DHT22;10548;47.504;8.248;2023-01-15T04:44:36;10.00;99.90
20777;DHT22;10548;47.504;8.248;2023-01-15T04:47:03;9.90;99.90
20777;DHT22;10548;47.504;8.248;2023-01-15T04:49:30;9.80;99.90
20777;DHT22;10548;47.504;8.248;2023-01-15T04:51:58;9.70;99.90
20777;DHT22;10548;47.504;8.248;2023-01-15T04:54:25;9.60;99.90
20777;DHT22;10548;47.504;8.248;2023-01-15T04:56:53;9.80;99.90
20777;DHT22;10548;47.504;8.248;2023-01-15T04:59:23;9.70;99.90
20777;DHT22;10548;47.504;8.248;2023-01-15T05:01:51;9.60;99.90
20777;DHT22;10548;47.504;8.248;2023-01-15T05:04:32;9.70;99.90
20777;DHT22;10548;47.504;8.248;2023-01-15T05:07:01;9.70;99.90
20777;DHT22;10548;47.504;8.248;2023-01-15T05:09:28;9.70;99.90
20777;DHT22;10548;47.504;8.248;2023-01-15T05:11:56;9.80;99.90
20777;DHT22;10548;47.504;8.248;2023-01-15T05:14:23;9.70;99.90
20777;DHT22;10548;47.504;8.248;2023-01-15T05:16:50;9.70;99.90
20777;DHT22;10548;47.504;8.248;2023-01-15T05:19:17;9.70;99.90
20777;DHT22;10548;47.504;8.248;2023-01-15T05:21:44;9.70;99.90
20777;DHT22;10548;47.504;8.248;2023-01-15T05:24:16;9.90;99.90
20777;DHT22;10548;47.504;8.248;2023-01-15T05:26:43;9.80;99.90
20777;DHT22;10548;47.504;8.248;2023-01-15T05:29:10;9.80;99.90
20777;DHT22;10548;47.504;8.248;2023-01-15T05:31:38;9.70;99.90
20777;DHT22;10548;47.504;8.248;2023-01-15T05:34:05;9.70;99.90
20777;DHT22;10548;47.504;8.248;2023-01-15T05:36:32;9.70;99.90
20777;DHT22;10548;47.504;8.248;2023-01-15T05:39:01;9.70;99.90
20777;DHT22;10548;47.504;8.248;2023-01-15T05:41:29;9.70;99.90
20777;DHT22;10548;47.504;8.248;2023-01-15T05:44:24;9.60;99.90
20777;DHT22;10548;47.504;8.248;2023-01-15T05:46:53;9.70;99.90
20777;DHT22;10548;47.504;8.248;2023-01-15T05:49:23;9.70;99.90
20777;DHT22;10548;47.504;8.248;2023-01-15T05:51:51;9.70;99.90
20777;DHT22;10548;47.504;8.248;2023-01-15T05:54:21;9.60;99.90
20777;DHT22;10548;47.504;8.248;2023-01-15T05:56:49;9.60;99.90
20777;DHT22;10548;47.504;8.248;2023-01-15T05:59:20;9.50;99.90
20777;DHT22;10548;47.504;8.248;2023-01-15T06:01:47;9.50;99.90
20777;DHT22;10548;47.504;8.248;2023-01-15T06:04:15;9.60;99.90
20777;DHT22;10548;47.504;8.248;2023-01-15T06:06:49;9.60;99.90
20777;DHT22;10548;47.504;8.248;2023-01-15T06:09:17;9.60;99.90
20777;DHT22;10548;47.504;8.248;2023-01-15T06:11:45;9.70;99.90
20777;DHT22;10548;47.504;8.248;2023-01-15T06:14:13;9.60;99.90
20777;DHT22;10548;47.504;8.248;2023-01-15T06:16:40;9.60;99.90
20777;DHT22;10548;47.504;8.248;2023-01-15T06:19:10;9.60;99.90
20777;DHT22;10548;47.504;8.248;2023-01-15T06:21:37;9.60;99.90
20777;DHT22;10548;47.504;8.248;2023-01-15T06:24:05;9.70;99.90
20777;DHT22;10548;47.504;8.248;2023-01-15T06:26:33;9.70;99.90
20777;DHT22;10548;47.504;8.248;2023-01-15T06:29:00;9.60;99.90
20777;DHT22;10548;47.504;8.248;2023-01-15T06:31:27;9.70;99.90
20777;DHT22;10548;47.504;8.248;2023-01-15T06:33:54;9.70;99.90
20777;DHT22;10548;47.504;8.248;2023-01-15T06:36:23;9.70;99.90
20777;DHT22;10548;47.504;8.248;2023-01-15T06:38:51;9.80;99.90
20777;DHT22;10548;47.504;8.248;2023-01-15T06:41:23;9.80;99.90
20777;DHT22;10548;47.504;8.248;2023-01-15T06:44:11;9.70;99.90
20777;DHT22;10548;47.504;8.248;2023-01-15T06:47:01;9.70;99.90
20777;DHT22;10548;47.504;8.248;2023-01-15T06:49:53;9.80;99.90
20777;DHT22;10548;47.504;8.248;2023-01-15T06:52:25;10.00;99.90
20777;DHT22;10548;47.504;8.248;2023-01-15T06:54:52;10.00;99.90
20777;DHT22;10548;47.504;8.248;2023-01-15T06:57:20;10.00;99.90
20777;DHT22;10548;47.504;8.248;2023-01-15T06:59:48;9.90;99.90
20777;DHT22;10548;47.504;8.248;2023-01-15T07:02:16;9.90;99.90
20777;DHT22;10548;47.504;8.248;2023-01-15T07:04:45;9.90;99.90
20777;DHT22;10548;47.504;8.248;2023-01-15T07:07:14;9.90;99.90
20777;DHT22;10548;47.504;8.248;2023-01-15T07:09:41;10.00;99.90
20777;DHT22;10548;47.504;8.248;2023-01-15T07:12:08;10.10;99.90
20777;DHT22;10548;47.504;8.248;2023-01-15T07:14:35;10.20;99.90
20777;DHT22;10548;47.504;8.248;2023-01-15T07:17:02;10.30;99.90
20777;DHT22;10548;47.504;8.248;2023-01-15T07:19:30;10.40;99.90
20777;DHT22;10548;47.504;8.248;2023-01-15T07:21:57;10.30;99.90
20777;DHT22;10548;47.504;8.248;2023-01-15T07:24:24;10.30;99.90
20777;DHT22;10548;47.504;8.248;2023-01-15T07:26:51;10.40;99.90
20777;DHT22;10548;47.504;8.248;2023-01-15T07:29:18;10.40;99.90
20777;DHT22;10548;47.504;8.248;2023-01-15T07:31:45;10.40;99.90
20777;DHT22;10548;47.504;8.248;2023-01-15T07:34:12;10.50;99.90
20777;DHT22;10548;47.504;8.248;2023-01-15T07:36:40;10.50;99.90
20777;DHT22;10548;47.504;8.248;2023-01-15T07:39:08;10.40;99.90
20777;DHT22;10548;47.504;8.248;2023-01-15T07:41:36;10.50;99.90
20777;DHT22;10548;47.504;8.248;2023-01-15T07:44:22;10.40;99.90
20777;DHT22;10548;47.504;8.248;2023-01-15T07:47:16;10.50;99.90
20777;DHT22;10548;47.504;8.248;2023-01-15T07:50:04;10.60;99.90
20777;DHT22;10548;47.504;8.248;2023-01-15T07:52:31;10.10;99.90
20777;DHT22;10548;47.504;8.248;2023-01-15T07:54:58;9.90;99.90
20777;DHT22;10548;47.504;8.248;2023-01-15T07:57:27;9.30;99.90
20777;DHT22;10548;47.504;8.248;2023-01-15T07:59:54;8.90;99.90
20777;DHT22;10548;47.504;8.248;2023-01-15T08:02:21;8.60;99.90
20777;DHT22;10548;47.504;8.248;2023-01-15T08:04:48;8.30;99.90
20777;DHT22;10548;47.504;8.248;2023-01-15T08:07:15;8.00;99.90
20777;DHT22;10548;47.504;8.248;2023-01-15T08:09:42;7.90;99.90
20777;DHT22;10548;47.504;8.248;2023-01-15T08:12:10;7.70;99.90
20777;DHT22;10548;47.504;8.248;2023-01-15T08:14:56;7.60;99.90
20777;DHT22;10548;47.504;8.248;2023-01-15T08:17:43;7.60;99.90
20777;DHT22;10548;47.504;8.248;2023-01-15T08:20:16;7.50;99.90
20777;DHT22;10548;47.504;8.248;2023-01-15T08:22:43;7.30;99.90
20777;DHT22;10548;47.504;8.248;2023-01-15T08:25:18;7.30;99.90
20777;DHT22;10548;47.504;8.248;2023-01-15T08:27:46;7.10;99.90
20777;DHT22;10548;47.504;8.248;2023-01-15T08:30:20;7.10;99.90
20777;DHT22;10548;47.504;8.248;2023-01-15T08:32:48;7.00;99.90
20777;DHT22;10548;47.504;8.248;2023-01-15T08:35:15;6.90;99.90
20777;DHT22;10548;47.504;8.248;2023-01-15T08:37:42;6.90;99.90
20777;DHT22;10548;47.504;8.248;2023-01-15T08:40:10;6.80;99.90
20777;DHT22;10548;47.504;8.248;2023-01-15T08:42:38;6.70;99.90
20777;DHT22;10548;47.504;8.248;2023-01-15T08:45:06;6.70;99.90
20777;DHT22;10548;47.504;8.248;2023-01-15T08:47:33;6.60;99.90
20777;DHT22;10548;47.504;8.248;2023-01-15T08:50:01;6.50;99.90
20777;DHT22;10548;47.504;8.248;2023-01-15T08:52:28;6.40;99.90
20777;DHT22;10548;47.504;8.248;2023-01-15T08:54:55;6.30;99.90
20777;DHT22;10548;47.504;8.248;2023-01-15T08:57:22;6.30;99.90
20777;DHT22;10548;47.504;8.248;2023-01-15T08:59:49;6.20;99.90
20777;DHT22;10548;47.504;8.248;2023-01-15T09:02:18;6.20;99.90
20777;DHT22;10548;47.504;8.248;2023-01-15T09:04:45;6.10;99.90
20777;DHT22;10548;47.504;8.248;2023-01-15T09:07:13;6.10;99.90
20777;DHT22;10548;47.504;8.248;2023-01-15T09:09:40;6.00;99.90
20777;DHT22;10548;47.504;8.248;2023-01-15T09:12:07;5.90;99.90
20777;DHT22;10548;47.504;8.248;2023-01-15T09:14:34;5.80;99.90
20777;DHT22;10548;47.504;8.248;2023-01-15T09:17:22;5.90;99.90
20777;DHT22;10548;47.504;8.248;2023-01-15T09:19:49;5.80;99.90
20777;DHT22;10548;47.504;8.248;2023-01-15T09:22:16;5.70;99.90
20777;DHT22;10548;47.504;8.248;2023-01-15T09:24:43;5.60;99.90
20777;DHT22;10548;47.504;8.248;2023-01-15T09:27:11;5.60;99.90
20777;DHT22;10548;47.504;8.248;2023-01-15T09:29:38;5.50;99.90
20777;DHT22;10548;47.504;8.248;2023-01-15T09:32:05;5.40;99.90
20777;DHT22;10548;47.504;8.248;2023-01-15T09:34:33;5.40;99.90
20777;DHT22;10548;47.504;8.248;2023-01-15T09:37:01;5.30;99.90
20777;DHT22;10548;47.504;8.248;2023-01-15T09:39:28;5.30;99.90
20777;DHT22;10548;47.504;8.248;2023-01-15T09:45:27;5.20;99.90
20777;DHT22;10548;47.504;8.248;2023-01-15T09:54:46;5.10;99.90
20777;DHT22;10548;47.504;8.248;2023-01-15T09:57:17;5.10;99.90
20777;DHT22;10548;47.504;8.248;2023-01-15T09:59:47;5.10;99.90
20777;DHT22;10548;47.504;8.248;2023-01-15T10:02:49;5.00;99.90
20777;DHT22;10548;47.504;8.248;2023-01-15T10:05:27;5.10;99.90
20777;DHT22;10548;47.504;8.248;2023-01-15T10:08:39;5.00;99.90
20777;DHT22;10548;47.504;8.248;2023-01-15T10:11:37;5.10;99.90
20777;DHT22;10548;47.504;8.248;2023-01-15T10:14:38;5.10;99.90
20777;DHT22;10548;47.504;8.248;2023-01-15T10:17:27;5.10;99.90
20777;DHT22;10548;47.504;8.248;2023-01-15T10:19:55;5.10;99.90
20777;DHT22;10548;47.504;8.248;2023-01-15T10:25:34;5.10;99.90
20777;DHT22;10548;47.504;8.248;2023-01-15T10:31:30;5.10;99.90
20777;DHT22;10548;47.504;8.248;2023-01-15T10:34:20;5.00;99.90
20777;DHT22;10548;47.504;8.248;2023-01-15T10:37:08;5.00;99.90
20777;DHT22;10548;47.504;8.248;2023-01-15T10:43:30;4.90;99.90
20777;DHT22;10548;47.504;8.248;2023-01-15T10:45:54;4.80;99.90
20777;DHT22;10548;47.504;8.248;2023-01-15T10:48:33;4.90;99.90
20777;DHT22;10548;47.504;8.248;2023-01-15T10:51:23;4.80;99.90
20777;DHT22;10548;47.504;8.248;2023-01-15T10:54:11;4.80;99.90
20777;DHT22;10548;47.504;8.248;2023-01-15T10:57:37;4.80;99.90
20777;DHT22;10548;47.504;8.248;2023-01-15T10:59:58;4.70;99.90
20777;DHT22;10548;47.504;8.248;2023-01-15T11:02:41;4.60;99.90
20777;DHT22;10548;47.504;8.248;2023-01-15T11:05:17;4.60;99.90
20777;DHT22;10548;47.504;8.248;2023-01-15T11:07:48;4.60;99.90
20777;DHT22;10548;47.504;8.248;2023-01-15T11:10:36;4.50;99.90
20777;DHT22;10548;47.504;8.248;2023-01-15T11:13:33;4.50;99.90
20777;DHT22;10548;47.504;8.248;2023-01-15T11:16:23;4.50;99.90
20777;DHT22;10548;47.504;8.248;2023-01-15T11:19:37;4.40;99.90
20777;DHT22;10548;47.504;8.248;2023-01-15T11:22:16;4.40;99.90
20777;DHT22;10548;47.504;8.248;2023-01-15T11:24:49;4.40;99.90
20777;DHT22;10548;47.504;8.248;2023-01-15T11:27:19;4.40;99.90
20777;DHT22;10548;47.504;8.248;2023-01-15T11:29:57;4.40;99.90
20777;DHT22;10548;47.504;8.248;2023-01-15T11:32:29;4.30;99.90
20777;DHT22;10548;47.504;8.248;2023-01-15T11:34:59;4.30;99.90
20777;DHT22;10548;47.504;8.248;2023-01-15T11:37:27;4.30;99.90
20777;DHT22;10548;47.504;8.248;2023-01-15T11:39:59;4.30;99.90
20777;DHT22;10548;47.504;8.248;2023-01-15T11:42:32;4.20;99.90
20777;DHT22;10548;47.504;8.248;2023-01-15T11:45:20;4.30;99.90
20777;DHT22;10548;47.504;8.248;2023-01-15T11:48:18;4.30;99.90
20777;DHT22;10548;47.504;8.248;2023-01-15T11:51:13;4.20;99.90
20777;DHT22;10548;47.504;8.248;2023-01-15T11:53:48;4.20;99.90
20777;DHT22;10548;47.504;8.248;2023-01-15T11:56:19;4.20;99.90
20777;DHT22;10548;47.504;8.248;2023-01-15T11:58:56;4.20;99.90
20777;DHT22;10548;47.504;8.248;2023-01-15T12:01:33;4.10;99.90
20777;DHT22;10548;47.504;8.248;2023-01-15T12:04:05;4.20;99.90
20777;DHT22;10548;47.504;8.248;2023-01-15T12:06:36;4.10;99.90
20777;DHT22;10548;47.504;8.248;2023-01-15T12:16:02;4.10;99.90
20777;DHT22;10548;47.504;8.248;2023-01-15T12:19:00;4.10;99.90
20777;DHT22;10548;47.504;8.248;2023-01-15T12:28:18;4.20;99.90
20777;DHT22;10548;47.504;8.248;2023-01-15T12:30:59;4.20;99.90
20777;DHT22;10548;47.504;8.248;2023-01-15T12:33:56;4.20;99.90
20777;DHT22;10548;47.504;8.248;2023-01-15T12:36:36;4.20;99.90
20777;DHT22;10548;47.504;8.248;2023-01-15T12:39:26;4.20;99.90
20777;DHT22;10548;47.504;8.248;2023-01-15T12:41:59;4.20;99.90
20777;DHT22;10548;47.504;8.248;2023-01-15T12:45:03;4.20;99.90
20777;DHT22;10548;47.504;8.248;2023-01-15T12:47:55;4.20;99.90
20777;DHT22;10548;47.504;8.248;2023-01-15T12:50:51;4.30;99.90
20777;DHT22;10548;47.504;8.248;2023-01-15T12:53:41;4.30;99.90
20777;DHT22;10548;47.504;8.248;2023-01-15T12:59:18;4.30;99.90
20777;DHT22;10548;47.504;8.248;2023-01-15T13:02:11;4.60;99.90
20777;DHT22;10548;47.504;8.248;2023-01-15T13:04:57;4.60;99.90
20777;DHT22;10548;47.504;8.248;2023-01-15T13:08:03;4.50;99.90
20777;DHT22;10548;47.504;8.248;2023-01-15T13:10:32;4.60;99.90
20777;DHT22;10548;47.504;8.248;2023-01-15T13:13:36;4.50;99.90
20777;DHT22;10548;47.504;8.248;2023-01-15T13:16:24;4.50;99.90
20777;DHT22;10548;47.504;8.248;2023-01-15T13:19:31;4.50;99.90
20777;DHT22;10548;47.504;8.248;2023-01-15T13:22:00;4.40;99.90
20777;DHT22;10548;47.504;8.248;2023-01-15T13:24:58;4.50;99.90
20777;DHT22;10548;47.504;8.248;2023-01-15T13:28:11;4.50;99.90
20777;DHT22;10548;47.504;8.248;2023-01-15T13:33:53;4.50;99.90
20777;DHT22;10548;47.504;8.248;2023-01-15T13:36:32;4.60;99.90
20777;DHT22;10548;47.504;8.248;2023-01-15T13:39:02;4.60;99.90
20777;DHT22;10548;47.504;8.248;2023-01-15T13:41:32;4.60;99.90
20777;DHT22;10548;47.504;8.248;2023-01-15T13:44:30;4.60;99.90
20777;DHT22;10548;47.504;8.248;2023-01-15T13:47:08;4.70;99.90
20777;DHT22;10548;47.504;8.248;2023-01-15T13:49:44;4.60;99.90
20777;DHT22;10548;47.504;8.248;2023-01-15T13:52:33;4.60;99.90
20777;DHT22;10548;47.504;8.248;2023-01-15T13:55:31;4.70;99.90
20777;DHT22;10548;47.504;8.248;2023-01-15T13:57:59;4.70;99.90
20777;DHT22;10548;47.504;8.248;2023-01-15T14:00:35;4.70;99.90
20777;DHT22;10548;47.504;8.248;2023-01-15T14:03:26;4.70;99.90
20777;DHT22;10548;47.504;8.248;2023-01-15T14:06:05;4.60;99.90
20777;DHT22;10548;47.504;8.248;2023-01-15T14:08:42;4.60;99.90
20777;DHT22;10548;47.504;8.248;2023-01-15T14:11:38;4.60;99.90
20777;DHT22;10548;47.504;8.248;2023-01-15T14:15:08;4.70;99.90
20777;DHT22;10548;47.504;8.248;2023-01-15T14:24:03;4.70;99.90
20777;DHT22;10548;47.504;8.248;2023-01-15T14:27:30;4.70;99.90
20777;DHT22;10548;47.504;8.248;2023-01-15T14:30:28;4.80;99.90
20777;DHT22;10548;47.504;8.248;2023-01-15T14:33:28;4.80;99.90
20777;DHT22;10548;47.504;8.248;2023-01-15T14:36:29;5.80;99.90
20777;DHT22;10548;47.504;8.248;2023-01-15T14:38:58;6.20;99.90
20777;DHT22;10548;47.504;8.248;2023-01-15T14:41:36;6.40;99.90
20777;DHT22;10548;47.504;8.248;2023-01-15T14:44:29;7.80;99.90
20777;DHT22;10548;47.504;8.248;2023-01-15T14:47:02;8.70;99.90
20777;DHT22;10548;47.504;8.248;2023-01-15T14:49:42;9.60;96.90
20777;DHT22;10548;47.504;8.248;2023-01-15T14:52:11;10.50;92.60
20777;DHT22;10548;47.504;8.248;2023-01-15T14:54:38;10.20;92.50
20777;DHT22;10548;47.504;8.248;2023-01-15T14:57:07;10.10;90.40
20777;DHT22;10548;47.504;8.248;2023-01-15T14:59:52;10.60;83.90
20777;DHT22;10548;47.504;8.248;2023-01-15T15:02:33;10.30;83.30
20777;DHT22;10548;47.504;8.248;2023-01-15T15:05:02;10.30;86.40
20777;DHT22;10548;47.504;8.248;2023-01-15T15:07:46;10.50;82.20
20777;DHT22;10548;47.504;8.248;2023-01-15T15:10:26;11.00;78.00
20777;DHT22;10548;47.504;8.248;2023-01-15T15:13:18;10.90;75.10
20777;DHT22;10548;47.504;8.248;2023-01-15T15:16:00;11.30;77.10
20777;DHT22;10548;47.504;8.248;2023-01-15T15:21:27;10.80;71.50
20777;DHT22;10548;47.504;8.248;2023-01-15T15:23:58;10.90;71.10
20777;DHT22;10548;47.504;8.248;2023-01-15T15:26:36;10.50;71.60
20777;DHT22;10548;47.504;8.248;2023-01-15T15:29:12;8.70;79.30
20777;DHT22;10548;47.504;8.248;2023-01-15T15:31:45;7.70;90.80
20777;DHT22;10548;47.504;8.248;2023-01-15T15:34:21;7.10;94.30
20777;DHT22;10548;47.504;8.248;2023-01-15T15:36:50;6.90;95.70
20777;DHT22;10548;47.504;8.248;2023-01-15T15:39:22;6.60;97.50
20777;DHT22;10548;47.504;8.248;2023-01-15T15:41:54;6.40;99.90
20777;DHT22;10548;47.504;8.248;2023-01-15T15:44:54;6.20;99.90
20777;DHT22;10548;47.504;8.248;2023-01-15T15:47:42;6.50;99.90
20777;DHT22;10548;47.504;8.248;2023-01-15T15:50:33;7.90;97.00
20777;DHT22;10548;47.504;8.248;2023-01-15T15:53:01;7.70;94.70
20777;DHT22;10548;47.504;8.248;2023-01-15T15:55:41;6.80;96.40
20777;DHT22;10548;47.504;8.248;2023-01-15T15:58:35;6.30;99.90
20777;DHT22;10548;47.504;8.248;2023-01-15T16:01:03;6.00;99.90
20777;DHT22;10548;47.504;8.248;2023-01-15T16:03:31;5.70;99.90
20777;DHT22;10548;47.504;8.248;2023-01-15T16:06:04;5.70;99.90
20777;DHT22;10548;47.504;8.248;2023-01-15T16:08:33;5.70;99.90
20777;DHT22;10548;47.504;8.248;2023-01-15T16:11:05;5.40;99.90
20777;DHT22;10548;47.504;8.248;2023-01-15T16:13:40;5.40;99.90
20777;DHT22;10548;47.504;8.248;2023-01-15T16:16:10;5.30;99.90
20777;DHT22;10548;47.504;8.248;2023-01-15T16:18:50;5.30;99.90
20777;DHT22;10548;47.504;8.248;2023-01-15T16:21:26;5.20;99.90
20777;DHT22;10548;47.504;8.248;2023-01-15T16:24:05;5.10;99.90
20777;DHT22;10548;47.504;8.248;2023-01-15T16:26:47;4.90;99.90
20777;DHT22;10548;47.504;8.248;2023-01-15T16:29:29;4.80;99.90
20777;DHT22;10548;47.504;8.248;2023-01-15T16:31:58;4.70;99.90
20777;DHT22;10548;47.504;8.248;2023-01-15T16:34:31;4.60;99.90
20777;DHT22;10548;47.504;8.248;2023-01-15T16:36:59;4.60;99.90
20777;DHT22;10548;47.504;8.248;2023-01-15T16:39:38;4.50;99.90
20777;DHT22;10548;47.504;8.248;2023-01-15T16:42:33;4.40;99.90
20777;DHT22;10548;47.504;8.248;2023-01-15T16:45:04;4.30;99.90
20777;DHT22;10548;47.504;8.248;2023-01-15T16:47:35;4.30;99.90
20777;DHT22;10548;47.504;8.248;2023-01-15T16:52:58;4.30;99.90
20777;DHT22;10548;47.504;8.248;2023-01-15T16:55:42;4.30;99.90
20777;DHT22;10548;47.504;8.248;2023-01-15T16:58:17;4.30;99.90
20777;DHT22;10548;47.504;8.248;2023-01-15T17:00:48;4.20;99.90
20777;DHT22;10548;47.504;8.248;2023-01-15T17:03:19;4.30;99.90
20777;DHT22;10548;47.504;8.248;2023-01-15T17:06:00;4.20;99.90
20777;DHT22;10548;47.504;8.248;2023-01-15T17:08:35;4.20;99.90
20777;DHT22;10548;47.504;8.248;2023-01-15T17:11:18;4.10;99.90
20777;DHT22;10548;47.504;8.248;2023-01-15T17:13:46;4.10;99.90
20777;DHT22;10548;47.504;8.248;2023-01-15T17:16:23;4.10;99.90
20777;DHT22;10548;47.504;8.248;2023-01-15T17:18:51;4.20;99.90
20777;DHT22;10548;47.504;8.248;2023-01-15T17:21:27;4.30;99.90
20777;DHT22;10548;47.504;8.248;2023-01-15T17:23:56;4.10;99.90
20777;DHT22;10548;47.504;8.248;2023-01-15T17:26:25;4.20;99.90
20777;DHT22;10548;47.504;8.248;2023-01-15T17:28:55;4.00;99.90
20777;DHT22;10548;47.504;8.248;2023-01-15T17:31:28;4.10;99.90
20777;DHT22;10548;47.504;8.248;2023-01-15T17:33:57;4.00;99.90
20777;DHT22;10548;47.504;8.248;2023-01-15T17:36:25;4.00;99.90
20777;DHT22;10548;47.504;8.248;2023-01-15T17:38:54;4.00;99.90
20777;DHT22;10548;47.504;8.248;2023-01-15T17:41:22;4.00;99.90
20777;DHT22;10548;47.504;8.248;2023-01-15T17:43:50;4.00;99.90
20777;DHT22;10548;47.504;8.248;2023-01-15T17:46:17;4.00;99.90